createdAt,value
2023-01-31T02:03:13.438Z,2.92
2023-01-31T02:05:50.702Z,4.57
2023-01-31T02:08:20.352Z,4.68
2023-01-31T02:10:59.304Z,4.83
2023-01-31T02:13:27.641Z,4.80
2023-01-31T02:15:55.655Z,4.73
2023-01-31T02:18:24.556Z,4.90
2023-01-31T02:21:17.797Z,4.59
2023-01-31T02:24:07.527Z,4.37
2023-01-31T02:27:08.953Z,4.63
2023-01-31T02:29:52.805Z,4.85
2023-01-31T02:32:49.105Z,5.03
2023-01-31T02:35:29.785Z,5.19
2023-01-31T02:38:14.921Z,5.24
2023-01-31T02:41:06.223Z,5.06
2023-01-31T02:44:05.897Z,5.15
2023-01-31T02:47:09.657Z,5.31
2023-01-31T02:49:47.079Z,5.34
2023-01-31T02:52:25.385Z,5.32
2023-01-31T02:55:23.651Z,5.14
2023-01-31T02:57:52.340Z,5.28
2023-01-31T03:00:20.738Z,5.44
2023-01-31T03:02:49.258Z,5.71
2023-01-31T03:05:18.655Z,5.55
2023-01-31T03:07:54.451Z,5.58
2023-01-31T03:10:35.095Z,5.60
2023-01-31T03:13:15.396Z,5.77
2023-01-31T03:16:14.667Z,5.74
2023-01-31T03:19:13.712Z,6.09
2023-01-31T03:22:01.846Z,6.13
2023-01-31T03:24:30.462Z,6.56
2023-01-31T03:26:59.449Z,5.96
2023-01-31T03:29:28.420Z,5.98
2023-01-31T03:32:00.609Z,6.12
2023-01-31T03:34:29.339Z,6.12
2023-01-31T03:37:03.167Z,6.03
2023-01-31T03:40:07.443Z,5.89
2023-01-31T03:42:47.276Z,5.82
2023-01-31T03:45:23.697Z,5.48
2023-01-31T03:47:55.715Z,5.66
2023-01-31T03:50:29.691Z,5.85
2023-01-31T03:53:15.019Z,5.94
2023-01-31T03:55:45.320Z,5.81
2023-01-31T03:58:14.276Z,6.14
2023-01-31T04:00:42.676Z,6.17
2023-01-31T04:03:20.457Z,6.15
2023-01-31T04:05:49.227Z,6.12
2023-01-31T04:08:18.035Z,6.21
2023-01-31T04:10:50.151Z,6.22
2023-01-31T04:13:18.170Z,6.34
2023-01-31T04:15:46.166Z,6.14
2023-01-31T04:18:14.234Z,6.10
2023-01-31T04:20:42.786Z,6.31
2023-01-31T04:23:12.808Z,6.18
2023-01-31T04:25:44.049Z,6.08
2023-01-31T04:28:12.291Z,6.11
2023-01-31T04:30:40.181Z,6.10
2023-01-31T04:33:08.399Z,5.91
2023-01-31T04:35:39.508Z,6.11
2023-01-31T04:38:07.511Z,6.21
2023-01-31T04:40:37.662Z,6.28
2023-01-31T04:43:06.028Z,6.33
2023-01-31T04:45:34.466Z,6.37
2023-01-31T04:48:04.698Z,6.42
2023-01-31T04:50:33.888Z,6.48
2023-01-31T04:53:01.925Z,6.46
2023-01-31T04:55:30.328Z,6.50
2023-01-31T04:57:58.573Z,6.58
2023-01-31T05:00:26.736Z,6.60
2023-01-31T05:02:55.090Z,7.02
2023-01-31T05:05:23.006Z,6.75
2023-01-31T05:07:51.326Z,6.67
2023-01-31T05:10:19.480Z,6.31
2023-01-31T05:12:47.415Z,6.20
2023-01-31T05:15:15.907Z,6.14
2023-01-31T05:17:43.871Z,6.32
2023-01-31T05:20:12.497Z,6.53
2023-01-31T05:22:41.374Z,6.49
2023-01-31T05:25:09.867Z,6.51
2023-01-31T05:27:38.755Z,6.44
2023-01-31T05:30:07.778Z,6.42
2023-01-31T05:32:37.127Z,6.38
2023-01-31T05:35:06.129Z,6.40
2023-01-31T05:37:34.323Z,6.48
2023-01-31T05:40:02.514Z,6.65
2023-01-31T05:42:31.215Z,7.04
2023-01-31T05:45:01.485Z,7.33
2023-01-31T05:47:29.764Z,7.78
2023-01-31T05:49:57.907Z,7.88
2023-01-31T05:52:26.256Z,7.82
2023-01-31T05:54:54.132Z,7.95
2023-01-31T05:57:24.842Z,7.71
2023-01-31T05:59:52.857Z,7.76
2023-01-31T06:02:20.901Z,7.95
2023-01-31T06:04:49.544Z,8.20
2023-01-31T06:07:20.516Z,7.98
2023-01-31T06:09:48.545Z,7.29
2023-01-31T06:12:16.434Z,7.31
2023-01-31T06:14:46.268Z,7.41
2023-01-31T06:17:14.951Z,7.51
2023-01-31T06:19:43.166Z,7.49
2023-01-31T06:22:11.329Z,7.73
2023-01-31T06:24:39.247Z,7.82
2023-01-31T06:27:07.147Z,7.56
2023-01-31T06:29:36.298Z,7.79
2023-01-31T06:32:04.767Z,7.76
2023-01-31T06:34:33.049Z,7.80
2023-01-31T06:37:00.939Z,7.64
2023-01-31T06:39:29.279Z,7.45
2023-01-31T06:41:57.670Z,7.62
2023-01-31T06:44:26.679Z,7.87
2023-01-31T06:46:56.016Z,7.65
2023-01-31T06:49:24.192Z,7.83
2023-01-31T06:51:53.125Z,7.92
2023-01-31T06:54:21.151Z,7.84
2023-01-31T06:56:49.033Z,7.59
2023-01-31T06:59:17.367Z,8.22
2023-01-31T07:01:45.278Z,8.05
2023-01-31T07:04:13.512Z,7.95
2023-01-31T07:06:41.502Z,8.11
2023-01-31T07:09:11.146Z,8.04
2023-01-31T07:11:42.894Z,8.41
2023-01-31T07:14:15.025Z,8.28
2023-01-31T07:16:42.955Z,8.36
2023-01-31T07:19:10.799Z,8.20
2023-01-31T07:21:38.804Z,8.41
2023-01-31T07:24:07.577Z,8.56
2023-01-31T07:26:38.827Z,8.45
2023-01-31T07:29:06.995Z,8.39
2023-01-31T07:31:34.949Z,8.30
2023-01-31T07:34:02.912Z,8.31
2023-01-31T07:36:32.258Z,7.98
2023-01-31T07:39:01.920Z,8.32
2023-01-31T07:41:31.090Z,8.60
2023-01-31T07:43:59.559Z,8.62
2023-01-31T07:46:27.673Z,8.36
2023-01-31T07:48:55.831Z,8.56
2023-01-31T07:51:24.234Z,8.86
2023-01-31T07:53:52.327Z,8.72
2023-01-31T07:56:21.524Z,8.89
2023-01-31T07:58:50.148Z,9.12
2023-01-31T08:01:38.629Z,9.13
2023-01-31T08:04:20.129Z,9.36
2023-01-31T08:06:50.701Z,9.32
2023-01-31T08:09:18.710Z,9.39
2023-01-31T11:51:39.892Z,5.84
2023-01-31T11:54:13.284Z,6.96
2023-01-31T11:56:40.209Z,7.09
2023-01-31T11:59:10.413Z,7.59
2023-01-31T12:01:51.040Z,7.62
2023-01-31T12:04:24.886Z,7.71
2023-01-31T12:06:57.174Z,7.82
2023-01-31T12:09:25.601Z,7.90
2023-01-31T12:11:57.009Z,7.97
2023-01-31T12:14:24.572Z,7.94
2023-01-31T12:16:55.270Z,7.87
2023-01-31T12:20:07.198Z,8.21
2023-01-31T12:22:51.655Z,8.15
2023-01-31T12:25:43.054Z,8.09
2023-01-31T12:28:42.253Z,8.21
2023-01-31T12:31:27.401Z,8.09
2023-01-31T12:34:04.156Z,7.89
2023-01-31T12:36:49.777Z,7.99
2023-01-31T12:40:09.071Z,8.13
2023-01-31T12:42:54.092Z,8.17
2023-01-31T12:45:47.235Z,8.07
2023-01-31T12:48:36.319Z,7.92
2023-01-31T12:51:43.079Z,7.96
2023-01-31T12:54:33.976Z,8.06
2023-01-31T12:57:06.714Z,7.94
2023-01-31T12:59:37.338Z,8.01
2023-01-31T13:02:51.589Z,8.07
2023-01-31T13:05:47.320Z,8.17
2023-01-31T13:08:21.404Z,8.01
2023-01-31T13:11:00.907Z,8.00
2023-01-31T13:13:35.657Z,8.01
2023-01-31T13:16:25.318Z,7.99
2023-01-31T13:18:53.903Z,8.15
2023-01-31T13:21:23.109Z,8.09
2023-01-31T13:23:53.819Z,8.17
2023-01-31T13:26:22.661Z,8.11
2023-01-31T13:29:23.763Z,8.23
2023-01-31T13:31:53.849Z,8.37
2023-01-31T13:34:31.063Z,8.46
2023-01-31T13:37:00.781Z,8.42
2023-01-31T13:39:35.350Z,8.42
2023-01-31T13:42:01.890Z,8.21
2023-01-31T13:44:28.617Z,8.11
2023-01-31T13:46:57.688Z,8.06
2023-01-31T13:49:28.783Z,8.04
2023-01-31T13:51:56.623Z,8.12
2023-01-31T13:54:33.530Z,8.14
2023-01-31T13:57:00.140Z,7.95
2023-01-31T13:59:28.283Z,8.26
2023-01-31T14:02:01.916Z,8.24
2023-01-31T14:04:34.365Z,8.36
2023-01-31T14:07:05.422Z,8.35
2023-01-31T14:09:55.582Z,8.46
2023-01-31T14:12:22.535Z,8.48
2023-01-31T14:14:50.723Z,8.55
2023-01-31T14:17:20.595Z,8.72
2023-01-31T14:19:47.158Z,8.62
2023-01-31T14:22:27.456Z,8.53
2023-01-31T14:24:56.128Z,8.45
2023-01-31T14:27:37.310Z,8.51
2023-01-31T14:30:06.718Z,8.36
2023-01-31T14:33:05.823Z,8.36
2023-01-31T14:36:07.393Z,8.50
2023-01-31T14:38:44.209Z,8.62
2023-01-31T14:41:40.060Z,8.55
2023-01-31T14:44:13.036Z,8.55
2023-01-31T14:47:06.575Z,8.51
2023-01-31T14:49:53.064Z,8.61
2023-01-31T14:52:23.623Z,8.64
2023-01-31T14:55:26.566Z,8.62
2023-01-31T14:57:57.691Z,8.83
2023-01-31T15:00:32.191Z,8.36
2023-01-31T15:03:12.506Z,8.59
2023-01-31T15:05:41.598Z,8.69
2023-01-31T15:08:08.280Z,8.69
2023-01-31T15:10:57.445Z,8.53
2023-01-31T15:13:39.199Z,8.45
2023-01-31T15:16:33.401Z,8.31
2023-01-31T15:19:16.830Z,8.61
2023-01-31T15:21:47.985Z,8.90
2023-01-31T15:24:19.832Z,8.68
2023-01-31T15:26:47.650Z,8.56
2023-01-31T15:29:43.824Z,8.54
2023-01-31T15:32:21.967Z,8.43
2023-01-31T15:35:01.291Z,8.38
2023-01-31T15:37:32.410Z,8.29
2023-01-31T15:40:02.605Z,8.44
2023-01-31T15:42:31.469Z,8.43
2023-01-31T15:45:16.597Z,8.61
2023-01-31T15:47:43.458Z,8.46
2023-01-31T15:50:17.904Z,8.41
2023-01-31T19:44:46.583Z,4.92
2023-01-31T19:47:14.793Z,6.35
2023-01-31T19:49:43.685Z,6.49
2023-01-31T19:52:11.852Z,6.48
2023-01-31T19:54:41.672Z,6.41
2023-01-31T19:57:10.802Z,6.44
2023-01-31T19:59:38.965Z,6.57
2023-01-31T20:02:07.271Z,6.66
2023-01-31T20:04:35.293Z,6.88
2023-01-31T20:07:04.160Z,6.99
2023-01-31T20:09:33.965Z,6.90
2023-01-31T20:12:02.021Z,7.06
2023-01-31T20:14:30.452Z,7.06
2023-01-31T20:16:58.891Z,7.12
2023-01-31T20:19:26.951Z,7.25
2023-01-31T20:21:55.453Z,7.44
2023-01-31T20:24:23.608Z,7.42
2023-01-31T20:26:51.772Z,7.35
2023-01-31T20:29:19.730Z,7.36
2023-01-31T20:31:48.784Z,6.95
2023-01-31T20:34:16.803Z,6.75
2023-01-31T20:36:44.907Z,6.97
2023-01-31T20:39:13.205Z,6.77
2023-01-31T20:41:41.384Z,6.86
2023-01-31T20:44:09.318Z,6.82
2023-01-31T20:46:37.964Z,7.08
2023-01-31T20:49:06.116Z,7.04
2023-01-31T20:51:34.587Z,7.29
2023-01-31T20:54:03.854Z,7.32
2023-01-31T20:56:32.382Z,7.38
2023-01-31T20:59:04.713Z,7.67
2023-01-31T21:01:33.259Z,7.30
2023-01-31T21:04:01.165Z,7.10
2023-01-31T21:06:29.757Z,6.95
2023-01-31T21:08:57.739Z,6.88
2023-01-31T21:11:25.811Z,6.95
2023-01-31T21:13:53.775Z,6.97
2023-01-31T21:16:22.211Z,6.81
2023-01-31T21:18:50.211Z,6.79
2023-01-31T21:21:25.523Z,6.91
2023-01-31T21:23:55.003Z,7.14
2023-01-31T21:26:24.960Z,7.38
2023-01-31T21:28:54.609Z,7.43
2023-01-31T21:31:22.858Z,7.61
2023-01-31T21:33:51.382Z,7.72
2023-01-31T21:36:21.545Z,7.71
2023-01-31T21:38:49.630Z,7.65
2023-01-31T21:41:36.885Z,7.53
2023-01-31T21:44:04.977Z,7.63
2023-01-31T21:46:33.176Z,7.64
2023-01-31T21:49:01.790Z,7.75
2023-01-31T23:51:04.657Z,1.70
2023-01-31T23:53:39.981Z,4.05
2023-01-31T23:56:24.761Z,4.70
2023-01-31T23:59:09.976Z,5.00
